createdAt,value
2023-02-17T00:01:27.192Z,99555.19
2023-02-17T00:03:54.157Z,99552.04
2023-02-17T00:06:22.891Z,99550.33
2023-02-17T00:08:49.731Z,99550.49
2023-02-17T00:11:17.681Z,99548.90
2023-02-17T00:13:45.066Z,99549.52
2023-02-17T00:16:18.004Z,99546.45
2023-02-17T00:18:45.219Z,99546.20
2023-02-17T00:21:16.618Z,99544.73
2023-02-17T00:23:44.465Z,99542.91
2023-02-17T00:26:11.432Z,99540.66
2023-02-17T00:28:38.625Z,99537.98
2023-02-17T00:31:18.237Z,99540.64
2023-02-17T00:33:47.560Z,99544.66
2023-02-17T00:36:19.115Z,99539.77
2023-02-17T00:38:49.594Z,99541.60
2023-02-17T00:41:17.870Z,99536.80
2023-02-17T00:43:45.566Z,99535.73
2023-02-17T00:46:12.660Z,99533.79
2023-02-17T00:48:39.590Z,99528.15
2023-02-17T00:51:06.712Z,99527.71
2023-02-17T00:53:35.187Z,99527.98
2023-02-17T00:56:02.356Z,99526.92
2023-02-17T00:58:31.751Z,99529.64
2023-02-17T01:00:58.643Z,99535.75
2023-02-17T01:03:26.748Z,99538.55
2023-02-17T01:05:54.471Z,99539.15
2023-02-17T01:08:22.557Z,99539.10
2023-02-17T01:48:22.070Z,99515.58
2023-02-17T01:51:02.613Z,99516.85
2023-02-17T01:53:47.025Z,99514.23
2023-02-17T01:56:15.749Z,99513.15
2023-02-17T01:58:48.525Z,99507.09
2023-02-17T02:01:20.041Z,99499.52
2023-02-17T02:03:51.471Z,99495.41
2023-02-17T02:06:21.766Z,99496.02
2023-02-17T02:08:53.197Z,99485.88
2023-02-17T02:11:23.561Z,99479.36
2023-02-17T02:13:50.634Z,99476.37
2023-02-17T02:16:26.992Z,99471.55
2023-02-17T02:19:26.869Z,99464.46
2023-02-17T02:22:15.240Z,99457.27
2023-02-17T02:24:50.749Z,99447.05
2023-02-17T02:27:40.956Z,99440.89
2023-02-17T02:30:11.115Z,99433.71
2023-02-17T02:32:45.411Z,99425.08
2023-02-17T02:35:22.913Z,99418.42
2023-02-17T02:37:59.632Z,99410.70
2023-02-17T02:40:32.630Z,99408.17
2023-02-17T02:43:01.560Z,99398.02
2023-02-17T02:45:28.517Z,99397.57
2023-02-17T02:47:57.414Z,99397.41
2023-02-17T02:50:43.411Z,99399.05
2023-02-17T02:53:47.921Z,99391.11
2023-02-17T02:56:28.657Z,99391.36
2023-02-17T02:59:12.221Z,99387.23
2023-02-17T03:01:44.736Z,99390.23
2023-02-17T03:04:43.812Z,99392.74
2023-02-17T03:07:20.510Z,99394.52
2023-02-17T03:09:53.184Z,99392.33
2023-02-17T03:13:12.748Z,99398.10
2023-02-17T03:15:39.778Z,99398.79
2023-02-17T03:18:06.301Z,99392.97
2023-02-17T03:20:50.364Z,99386.16
2023-02-17T03:23:18.552Z,99383.51
2023-02-17T03:25:46.973Z,99377.27
2023-02-17T03:28:16.206Z,99382.25
2023-02-17T03:30:42.988Z,99383.79
2023-02-17T03:33:09.475Z,99387.15
2023-02-17T03:35:36.061Z,99386.86
2023-02-17T03:38:03.414Z,99388.42
2023-02-17T03:40:32.068Z,99390.33
2023-02-17T03:42:58.601Z,99384.41
2023-02-17T03:45:25.311Z,99384.85
2023-02-17T03:47:54.376Z,99377.48
2023-02-17T03:50:21.087Z,99378.21
2023-02-17T03:52:47.530Z,99378.00
2023-02-17T03:55:14.257Z,99379.44
2023-02-17T03:57:40.990Z,99377.84
2023-02-17T04:00:08.874Z,99377.23
2023-02-17T04:02:43.986Z,99374.15
2023-02-17T04:05:13.634Z,99376.89
2023-02-17T04:07:40.493Z,99380.91
2023-02-17T04:10:09.418Z,99385.91
2023-02-17T04:12:36.401Z,99383.20
2023-02-17T04:15:03.313Z,99379.23
2023-02-17T04:17:33.112Z,99375.65
2023-02-17T04:20:03.010Z,99380.19
2023-02-17T04:22:29.666Z,99377.86
2023-02-17T04:24:56.390Z,99382.23
2023-02-17T04:27:22.910Z,99382.04
2023-02-17T04:29:51.079Z,99382.96
2023-02-17T04:32:17.588Z,99384.65
2023-02-17T04:34:44.055Z,99384.46
2023-02-17T04:37:10.627Z,99382.27
2023-02-17T04:39:37.185Z,99380.48
2023-02-17T04:42:06.368Z,99377.20
2023-02-17T04:44:32.927Z,99378.30
2023-02-17T04:47:01.726Z,99375.36
2023-02-17T04:49:28.217Z,99380.80
2023-02-17T04:51:54.914Z,99383.01
2023-02-17T04:54:22.265Z,99380.40
2023-02-17T04:56:48.806Z,99384.19
2023-02-17T04:59:15.495Z,99381.88
2023-02-17T05:01:44.585Z,99379.76
2023-02-17T05:04:11.206Z,99373.71
2023-02-17T05:06:37.695Z,99373.20
2023-02-17T05:09:04.305Z,99373.40
2023-02-17T05:11:33.199Z,99375.36
2023-02-17T05:13:59.769Z,99369.94
2023-02-17T05:16:28.892Z,99374.58
2023-02-17T05:18:56.086Z,99376.27
2023-02-17T05:21:22.788Z,99375.27
2023-02-17T05:23:49.467Z,99369.14
2023-02-17T05:26:16.230Z,99368.77
2023-02-17T05:28:42.906Z,99369.56
2023-02-17T05:31:10.077Z,99372.05
2023-02-17T05:33:38.961Z,99369.42
2023-02-17T05:36:08.573Z,99369.04
2023-02-17T05:38:35.563Z,99374.70
2023-02-17T05:41:02.299Z,99380.94
2023-02-17T05:43:29.182Z,99388.56
2023-02-17T05:45:55.697Z,99392.91
2023-02-17T05:48:24.882Z,99387.94
2023-02-17T05:50:54.093Z,99377.65
2023-02-17T05:53:20.687Z,99386.35
2023-02-17T05:55:48.807Z,99382.86
2023-02-17T05:58:15.905Z,99377.93
2023-02-17T06:00:42.925Z,99378.77
2023-02-17T06:09:56.418Z,99356.13
2023-02-17T06:12:44.987Z,99352.25
2023-02-17T06:15:12.064Z,99352.14
2023-02-17T06:17:41.275Z,99366.45
2023-02-17T06:20:08.966Z,99360.61
2023-02-17T06:22:35.961Z,99360.31
2023-02-17T06:59:52.317Z,99324.48
2023-02-17T07:02:25.810Z,99316.79
2023-02-17T07:04:52.479Z,99302.14
2023-02-17T07:07:20.233Z,99292.50
2023-02-17T07:09:50.095Z,99285.04
2023-02-17T07:12:16.949Z,99274.08
2023-02-17T07:14:46.380Z,99263.89
2023-02-17T07:17:13.065Z,99249.31
2023-02-17T07:19:40.983Z,99239.30
2023-02-17T07:22:07.756Z,99233.25
2023-02-17T07:24:38.189Z,99224.27
2023-02-17T07:27:10.562Z,99219.08
2023-02-17T07:29:38.174Z,99213.25
2023-02-17T07:32:05.145Z,99205.65
2023-02-17T07:34:31.662Z,99198.98
2023-02-17T07:37:01.822Z,99189.27
2023-02-17T07:39:30.918Z,99190.95
2023-02-17T07:42:00.350Z,99189.92
2023-02-17T07:44:27.985Z,99190.62
2023-02-17T07:46:55.002Z,99184.30
2023-02-17T07:49:21.840Z,99179.27
2023-02-17T07:51:48.487Z,99169.95
2023-02-17T07:54:15.266Z,99165.59
2023-02-17T07:56:42.112Z,99158.73
2023-02-17T07:59:09.846Z,99155.77
2023-02-17T08:01:37.189Z,99149.27
2023-02-17T08:04:06.395Z,99141.20
2023-02-17T08:06:33.112Z,99135.11
2023-02-17T08:09:18.503Z,99128.50
2023-02-17T08:12:04.072Z,99125.04
2023-02-17T08:14:33.882Z,99120.50
2023-02-17T08:17:01.336Z,99116.87
2023-02-17T08:19:42.776Z,99108.41
2023-02-17T08:22:13.142Z,99104.34
2023-02-17T08:24:39.903Z,99103.03
2023-02-17T08:27:06.681Z,99098.95
2023-02-17T08:29:33.331Z,99086.23
2023-02-17T08:32:00.053Z,99060.61
2023-02-17T08:34:37.913Z,99042.18
2023-02-17T08:37:05.894Z,99020.83
2023-02-17T08:39:33.969Z,99002.98
2023-02-17T08:42:05.745Z,98983.67
2023-02-17T08:44:41.054Z,98967.85
2023-02-17T08:47:09.951Z,98955.79
2023-02-17T08:49:39.737Z,98943.94
2023-02-17T08:52:06.601Z,98933.42
2023-02-17T08:54:33.383Z,98918.73
2023-02-17T08:57:02.798Z,98909.33
2023-02-17T08:59:29.878Z,98903.36
2023-02-17T09:02:41.918Z,98890.18
2023-02-17T09:07:03.776Z,98871.98
2023-02-17T09:10:16.558Z,98855.88
2023-02-17T09:12:45.985Z,98843.76
2023-02-17T09:15:12.772Z,98839.23
2023-02-17T09:17:45.090Z,98830.88
2023-02-17T09:20:23.806Z,98815.86
2023-02-17T09:22:52.561Z,98802.11
2023-02-17T09:25:19.445Z,98789.72
2023-02-17T09:27:49.657Z,98781.98
2023-02-17T09:30:16.742Z,98765.05
2023-02-17T09:32:51.543Z,98747.95
2023-02-17T09:35:21.231Z,98734.29
2023-02-17T09:37:48.334Z,98717.60
2023-02-17T09:40:21.896Z,98702.55
2023-02-17T09:42:48.974Z,98687.70
2023-02-17T09:45:27.074Z,98673.95
2023-02-17T09:47:59.019Z,98666.25
2023-02-17T09:50:59.394Z,98658.02
2023-02-17T09:53:34.773Z,98587.15
2023-02-17T09:56:04.652Z,98481.04
2023-02-17T09:58:38.630Z,98470.84
2023-02-17T10:01:18.992Z,98457.67
2023-02-17T10:03:56.691Z,98450.70
2023-02-17T10:06:35.565Z,98443.55
2023-02-17T10:09:12.947Z,98430.38
2023-02-17T10:12:13.315Z,98421.06
2023-02-17T10:14:45.536Z,98405.86
2023-02-17T10:17:33.978Z,98397.42
2023-02-17T10:20:08.701Z,98392.27
2023-02-17T10:22:35.308Z,98382.03
2023-02-17T10:25:12.839Z,98369.19
2023-02-17T10:27:53.447Z,98362.75
2023-02-17T10:30:35.279Z,98354.88
2023-02-17T10:33:31.327Z,98347.11
2023-02-17T10:36:40.574Z,98334.93
2023-02-17T12:48:01.477Z,97911.80
2023-02-17T13:37:21.066Z,97201.77
2023-02-17T13:39:51.406Z,97216.77
2023-02-17T13:42:35.744Z,97249.24
2023-02-17T13:45:21.719Z,97282.38
2023-02-17T13:47:50.919Z,97304.42
2023-02-17T13:50:32.935Z,97322.52
2023-02-17T13:53:02.154Z,97327.70
2023-02-17T13:55:30.592Z,97342.52
2023-02-17T13:57:59.261Z,97348.48
2023-02-17T14:00:46.779Z,97361.05
2023-02-17T14:03:42.730Z,97362.17
2023-02-17T14:06:21.266Z,97360.39
2023-02-17T14:08:48.311Z,97363.01
2023-02-17T14:11:20.879Z,97365.73
2023-02-17T14:14:05.628Z,97366.37
2023-02-17T14:16:47.830Z,97365.31
2023-02-17T14:20:04.930Z,97366.33
2023-02-17T14:22:42.720Z,97364.78
2023-02-17T14:50:59.670Z,97323.61
2023-02-17T15:12:18.246Z,97326.55
2023-02-17T15:36:16.789Z,97292.65
2023-02-17T15:38:43.576Z,97294.48
2023-02-17T15:44:25.447Z,97276.47
2023-02-17T15:46:55.490Z,97262.29
2023-02-17T15:49:34.824Z,97254.95
2023-02-17T15:52:01.850Z,97240.41
2023-02-17T15:54:32.500Z,97235.42
2023-02-17T15:57:03.280Z,97234.14
2023-02-17T15:59:30.110Z,97235.47
2023-02-17T16:02:00.545Z,97232.60
2023-02-17T16:04:28.396Z,97223.05
2023-02-17T16:06:55.276Z,97221.94
2023-02-17T16:09:22.794Z,97217.56
2023-02-17T16:11:52.481Z,97215.27
2023-02-17T16:14:33.259Z,97207.50
2023-02-17T16:17:00.448Z,97205.63
2023-02-17T16:19:27.802Z,97208.52
2023-02-17T16:21:56.794Z,97208.04
2023-02-17T16:24:23.449Z,97205.16
2023-02-17T16:26:57.039Z,97194.83
2023-02-17T16:29:24.695Z,97204.73
2023-02-17T16:31:51.950Z,97205.80
2023-02-17T16:34:22.471Z,97196.74
2023-02-17T16:36:56.322Z,97206.61
2023-02-17T16:39:23.231Z,97207.77
2023-02-17T16:41:50.253Z,97197.70
2023-02-17T16:44:18.960Z,97198.45
2023-02-17T16:46:49.076Z,97191.27
2023-02-17T16:49:31.920Z,97182.31
2023-02-17T16:52:19.418Z,97193.19
2023-02-17T16:54:46.256Z,97186.09
2023-02-17T16:57:18.484Z,97184.33
2023-02-17T16:59:48.748Z,97176.50
2023-02-17T17:02:18.742Z,97167.83
2023-02-17T17:04:49.023Z,97166.55
2023-02-17T17:07:16.261Z,97157.86
2023-02-17T17:10:14.707Z,97147.36
2023-02-17T17:12:35.625Z,97153.44
2023-02-17T17:15:05.443Z,97147.63
2023-02-17T17:17:39.241Z,97138.46
2023-02-17T17:20:06.905Z,97135.96
2023-02-17T17:22:37.127Z,97140.77
2023-02-17T17:25:04.119Z,97150.02
2023-02-17T17:27:30.884Z,97138.66
2023-02-17T17:29:59.826Z,97131.10
2023-02-17T17:32:26.727Z,97131.31
2023-02-17T17:34:55.743Z,97125.77
2023-02-17T17:37:22.773Z,97127.42
2023-02-17T17:39:49.598Z,97118.73
2023-02-17T17:42:19.426Z,97114.84
2023-02-17T17:44:48.592Z,97115.37
2023-02-17T17:47:28.129Z,97108.48
2023-02-17T17:49:58.606Z,97100.23
2023-02-17T17:52:37.776Z,97102.78
2023-02-17T17:55:04.604Z,97086.95
2023-02-17T17:57:31.857Z,97091.59
2023-02-17T17:59:58.822Z,97093.73
2023-02-17T18:02:27.946Z,97125.19
2023-02-17T18:04:57.404Z,97118.38
2023-02-17T18:07:26.621Z,97109.57
2023-02-17T18:09:53.327Z,97102.79
2023-02-17T18:12:23.585Z,97104.39
2023-02-17T18:14:53.747Z,97101.99
2023-02-17T18:17:22.442Z,97100.92
2023-02-17T18:19:54.307Z,97101.19
2023-02-17T18:22:21.638Z,97099.00
2023-02-17T18:24:48.870Z,97091.80
2023-02-17T18:27:15.636Z,97104.07
2023-02-17T18:29:47.433Z,97087.27
2023-02-17T18:32:14.423Z,97087.68
2023-02-17T18:34:42.418Z,97089.07
2023-02-17T18:37:11.463Z,97083.41
2023-02-17T18:39:38.733Z,97098.98
2023-02-17T18:42:06.068Z,97104.06
2023-02-17T18:44:32.813Z,97089.05
2023-02-17T18:46:59.565Z,97080.20
2023-02-17T18:49:28.560Z,97106.66
2023-02-17T18:51:59.691Z,97105.48
2023-02-17T18:54:26.052Z,97097.84
2023-02-17T18:56:52.897Z,97097.09
2023-02-17T18:59:19.582Z,97099.48
2023-02-17T19:01:46.324Z,97102.55
2023-02-17T19:04:14.345Z,97087.04
2023-02-17T19:06:41.474Z,97091.84
2023-02-17T19:09:07.941Z,97099.46
2023-02-17T19:11:34.692Z,97094.11
2023-02-17T19:14:01.829Z,97089.41
2023-02-17T19:16:30.333Z,97092.01
2023-02-17T19:18:58.072Z,97090.39
2023-02-17T19:21:27.694Z,97094.27
2023-02-17T19:23:54.581Z,97099.29
2023-02-17T19:26:21.603Z,97102.66
2023-02-17T19:28:48.581Z,97099.91
2023-02-17T19:31:18.854Z,97103.65
2023-02-17T19:33:48.281Z,97099.48
2023-02-17T19:36:18.283Z,97103.31
2023-02-17T19:38:46.013Z,97111.21
2023-02-17T19:41:14.069Z,97116.65
2023-02-17T19:43:41.999Z,97116.23
2023-02-17T19:46:13.415Z,97120.57
2023-02-17T19:48:50.926Z,97116.30
2023-02-17T19:51:18.852Z,97132.42
2023-02-17T19:53:45.718Z,97137.34
2023-02-17T19:56:16.566Z,97142.94
2023-02-17T19:58:45.121Z,97146.11
2023-02-17T20:01:25.671Z,97154.64
2023-02-17T20:03:56.129Z,97152.98
2023-02-17T20:06:31.828Z,97148.34
2023-02-17T20:09:01.280Z,97151.02
2023-02-17T20:11:28.684Z,97158.38
2023-02-17T20:13:57.685Z,97162.23
2023-02-17T20:16:25.182Z,97157.73
2023-02-17T20:18:52.252Z,97156.83
2023-02-17T20:21:21.684Z,97142.98
2023-02-17T20:23:49.028Z,97147.03
2023-02-17T20:26:23.725Z,97149.11
2023-02-17T20:28:52.364Z,97152.23
2023-02-17T20:31:19.461Z,97154.45
2023-02-17T20:33:46.811Z,97158.58
2023-02-17T20:36:14.033Z,97158.48
2023-02-17T20:38:41.261Z,97156.70
2023-02-17T20:41:17.177Z,97149.16
2023-02-17T20:43:47.119Z,97146.31
2023-02-17T20:46:28.177Z,97148.93
2023-02-17T20:48:55.962Z,97154.69
2023-02-17T20:51:23.236Z,97153.40
2023-02-17T20:53:51.086Z,97154.13
2023-02-17T20:56:20.531Z,97151.85
2023-02-17T20:58:48.385Z,97147.27
2023-02-17T21:01:16.940Z,97152.35
2023-02-17T21:03:43.695Z,97143.98
2023-02-17T21:06:20.368Z,97140.65
2023-02-17T21:08:50.434Z,97139.91
2023-02-17T21:11:19.985Z,97146.20
2023-02-17T21:13:46.617Z,97144.53
2023-02-17T21:16:15.375Z,97145.42
2023-02-17T21:18:46.052Z,97146.04
2023-02-17T21:21:14.289Z,97158.61
2023-02-17T21:23:42.168Z,97172.03
2023-02-17T21:26:10.664Z,97184.77
2023-02-17T21:28:38.320Z,97185.04
2023-02-17T21:31:10.846Z,97205.95
2023-02-17T21:33:41.338Z,97242.85
2023-02-17T21:36:14.636Z,97295.86
2023-02-17T21:38:44.783Z,97351.98
2023-02-17T21:41:18.465Z,97391.20
2023-02-17T21:44:04.358Z,97430.27
2023-02-17T21:46:31.938Z,97457.23
2023-02-17T21:49:00.448Z,97484.89
2023-02-17T21:51:27.390Z,97513.05
2023-02-17T21:53:54.302Z,97528.58
2023-02-17T21:56:23.160Z,97549.61
2023-02-17T21:58:54.523Z,97549.02
2023-02-17T22:01:25.797Z,97561.70
2023-02-17T22:03:53.232Z,97572.30
2023-02-17T22:06:25.839Z,97590.44
2023-02-17T22:08:53.559Z,97620.73
2023-02-17T22:11:23.092Z,97644.92
2023-02-17T22:13:54.152Z,97682.80
2023-02-17T22:16:20.895Z,97719.23
2023-02-17T22:18:47.616Z,97739.28
2023-02-17T22:21:14.823Z,97777.95
2023-02-17T22:23:42.226Z,97810.84
2023-02-17T22:26:12.011Z,97848.73
2023-02-17T22:28:39.112Z,97881.77
2023-02-17T22:31:08.302Z,97911.07
2023-02-17T22:33:39.390Z,97942.35
2023-02-17T22:36:09.650Z,97965.21
2023-02-17T22:38:39.138Z,98001.17
2023-02-17T22:41:12.029Z,98030.89
2023-02-17T22:43:40.634Z,98085.80
2023-02-17T22:46:09.262Z,98147.80
2023-02-17T22:48:38.087Z,98179.55
2023-02-17T22:51:10.949Z,98208.91
2023-02-17T22:53:38.631Z,98222.72
2023-02-17T22:56:08.519Z,98241.53
2023-02-17T22:58:36.107Z,98263.33
2023-02-17T23:01:07.698Z,98277.73
2023-02-17T23:03:35.256Z,98289.87
2023-02-17T23:06:05.531Z,98286.20
